Time;durP1;ratioP1;P1;durP2;ratioP2;P2;SDS_P1;SDS_P2;PMS_P1;PMS_P2;Temp;Humidity;BMP_temperature;BMP_pressure;BME280_temperature;BME280_humidity;BME280_pressure;Samples;Min_cycle;Max_cycle;Signal;HPM_P1;HPM_P2
2022/06/13 00:01:50;;;;;;;37.33;35.33;;;;;;;23.05;39.47;101948.31;5070135;28;20083;-68
2022/06/13 00:04:15;;;;;;;37.20;35.25;;;;;;;23.02;39.36;101951.69;5072267;28;20476;-68
2022/06/13 00:06:40;;;;;;;37.55;35.55;;;;;;;22.98;39.53;101951.47;5072826;28;20047;-68
2022/06/13 00:09:06;;;;;;;39.30;36.88;;;;;;;22.95;39.83;101946.50;5072524;28;20040;-68
2022/06/13 00:11:32;;;;;;;38.72;36.28;;;;;;;22.91;39.41;101948.25;5072813;28;20032;-68
2022/06/13 00:13:58;;;;;;;37.95;35.63;;;;;;;22.89;39.74;101944.94;5063608;28;20059;-68
2022/06/13 00:16:24;;;;;;;38.15;36.08;;;;;;;22.85;39.48;101941.94;5071771;28;20028;-68
2022/06/13 00:18:49;;;;;;;37.83;35.72;;;;;;;22.83;39.39;101940.59;5068182;28;20039;-68
2022/06/13 00:21:20;;;;;;;38.60;36.40;;;;;;;22.79;39.63;101936.81;5059474;28;20029;-68
2022/06/13 00:23:47;;;;;;;38.90;36.53;;;;;;;22.76;40.11;101932.72;5070828;28;20048;-68
2022/06/13 00:26:13;;;;;;;40.25;38.10;;;;;;;22.74;39.65;101928.63;5062533;28;20047;-68
2022/06/13 00:28:38;;;;;;;38.35;36.08;;;;;;;22.71;39.92;101927.28;5072232;28;20036;-68
2022/06/13 00:31:04;;;;;;;38.35;36.10;;;;;;;22.67;40.10;101927.03;5072471;28;20032;-68
2022/06/13 00:33:29;;;;;;;40.47;37.83;;;;;;;22.66;39.72;101930.13;5070028;28;20068;-68
2022/06/13 00:35:55;;;;;;;38.03;35.92;;;;;;;22.63;40.21;101934.28;5071793;28;20036;-68
2022/06/13 00:38:20;;;;;;;38.72;36.05;;;;;;;22.59;40.03;101929.66;5071522;28;20391;-68
2022/06/13 00:40:46;;;;;;;36.95;34.85;;;;;;;22.58;39.90;101931.59;5071891;28;20032;-69
2022/06/13 00:43:15;;;;;;;38.35;36.17;;;;;;;22.55;40.28;101928.59;5087491;28;20174;-68
2022/06/13 00:45:41;;;;;;;37.10;34.80;;;;;;;22.52;39.99;101927.25;5070128;28;20037;-69
2022/06/13 00:48:10;;;;;;;37.70;35.25;;;;;;;22.51;40.32;101924.81;5065498;28;20102;-68
2022/06/13 00:50:52;;;;;;;41.00;38.67;;;;;;;22.46;39.85;101918.25;5071887;28;20024;-69
2022/06/13 00:53:24;;;;;;;39.58;37.20;;;;;;;22.44;39.86;101923.22;5072038;28;20029;-68
2022/06/13 00:55:56;;;;;;;38.00;35.65;;;;;;;22.41;40.46;101932.06;5070465;28;20120;-69
2022/06/13 00:58:22;;;;;;;37.58;35.20;;;;;;;22.39;39.69;101922.47;5064817;28;20484;-68
2022/06/13 01:00:53;;;;;;;38.63;36.08;;;;;;;22.36;40.25;101915.63;5070060;28;20146;-68
2022/06/13 01:03:18;;;;;;;37.83;35.38;;;;;;;22.33;39.94;101924.47;5051980;28;20380;-68
2022/06/13 01:05:48;;;;;;;38.33;36.22;;;;;;;22.32;40.03;101924.75;5066287;28;20513;-68
2022/06/13 01:08:15;;;;;;;37.20;35.10;;;;;;;22.29;40.50;101922.59;5060278;28;20082;-68
2022/06/13 01:13:45;;;;;;;39.78;36.45;;;;;;;22.24;40.08;101917.97;5071484;28;20075;-68
2022/06/13 01:16:16;;;;;;;36.95;34.65;;;;;;;22.20;40.10;101912.22;5067340;28;20115;-68
2022/06/13 01:18:41;;;;;;;38.30;35.70;;;;;;;22.18;40.42;101919.13;5071204;28;20123;-68
2022/06/13 01:21:15;;;;;;;38.15;36.10;;;;;;;22.17;40.46;101928.47;5071235;28;20111;-68
2022/06/13 01:23:58;;;;;;;37.67;35.45;;;;;;;22.14;40.13;101926.31;5071764;28;20067;-68
2022/06/13 01:27:21;;;;;;;35.97;33.78;;;;;;;22.09;40.28;101905.16;5067421;28;20040;-68
2022/06/13 01:29:57;;;;;;;35.15;33.08;;;;;;;22.07;40.62;101912.06;5009111;28;20036;-69
2022/06/13 01:33:05;;;;;;;38.25;35.75;;;;;;;22.03;40.81;101904.41;5009374;28;20042;-68
2022/06/13 01:35:43;;;;;;;;;;;;;;;21.98;40.77;101896.22;5040856;28;20055;-68
2022/06/13 01:38:38;;;;;;;34.15;32.33;;;;;;;21.95;40.91;101905.03;5062845;28;19916;-68
2022/06/13 01:41:24;;;;;;;35.70;33.40;;;;;;;21.93;40.96;101899.00;5057715;28;20044;-68
2022/06/13 01:44:14;;;;;;;36.60;34.35;;;;;;;21.91;40.84;101903.97;5071675;28;20119;-68
2022/06/13 01:46:55;;;;;;;36.60;34.30;;;;;;;21.88;40.96;101903.75;5064031;28;20025;-68
2022/06/13 01:49:35;;;;;;;37.30;35.03;;;;;;;21.86;41.16;101901.28;5056860;28;20451;-68
2022/06/13 01:52:19;;;;;;;36.55;34.58;;;;;;;21.83;40.87;101908.19;5071383;28;20417;-68
2022/06/13 01:54:54;;;;;;;36.53;34.40;;;;;;;21.81;40.86;101902.16;5072021;28;20036;-68
2022/06/13 01:57:54;;;;;;;36.30;33.95;;;;;;;21.80;41.18;101891.47;5055802;28;20111;-68
2022/06/13 02:00:27;;;;;;;37.50;34.70;;;;;;;21.77;41.06;101903.84;5057446;28;20045;-69
2022/06/13 02:03:14;;;;;;;35.95;33.65;;;;;;;21.75;41.25;101908.81;5070599;28;20111;-68
2022/06/13 02:06:01;;;;;;;36.28;34.03;;;;;;;21.73;41.45;101913.78;5069219;28;20104;-69
2022/06/13 02:08:33;;;;;;;38.75;36.28;;;;;;;21.70;41.46;101921.81;5069282;28;20575;-68
2022/06/13 02:11:10;;;;;;;35.83;33.63;;;;;;;21.70;41.01;101924.56;5071292;28;20032;-68
2022/06/13 02:13:42;;;;;;;36.10;34.07;;;;;;;21.69;41.12;101922.91;5058355;28;20025;-68
2022/06/13 02:16:17;;;;;;;36.22;33.72;;;;;;;21.66;41.37;101921.53;5065844;28;20035;-68
2022/06/13 02:19:03;;;;;;;35.33;33.30;;;;;;;21.65;41.44;101913.59;5069175;28;20028;-68
2022/06/13 02:21:37;;;;;;;37.60;34.90;;;;;;;21.63;41.31;101913.06;5071886;28;20111;-68
2022/06/13 02:24:05;;;;;;;34.72;32.75;;;;;;;21.61;41.52;101907.84;5075084;28;20052;-68
2022/06/13 02:26:34;;;;;;;38.50;35.70;;;;;;;21.59;41.30;101901.81;5068669;28;20044;-68
2022/06/13 02:29:03;;;;;;;;;;;;;;;21.55;41.47;101895.28;5074059;28;20047;-68
2022/06/13 02:31:40;;;;;;;35.03;32.88;;;;;;;21.53;41.63;101909.28;5071963;28;20367;-69
2022/06/13 02:34:25;;;;;;;34.35;31.98;;;;;;;21.52;41.38;101910.41;5074916;28;20032;-68
2022/06/13 02:37:14;;;;;;;36.75;33.75;;;;;;;21.49;41.77;101905.47;5070698;28;20036;-68
2022/06/13 02:39:48;;;;;;;34.20;32.30;;;;;;;21.47;41.58;101913.22;5071099;28;20028;-68
2022/06/13 02:42:23;;;;;;;35.65;33.13;;;;;;;21.46;41.72;101905.25;5073518;28;20485;-68
2022/06/13 02:44:56;;;;;;;34.15;32.08;;;;;;;21.43;41.89;101906.63;5070061;28;20040;-69
2022/06/13 02:47:30;;;;;;;36.80;34.53;;;;;;;21.43;41.55;101906.63;5074120;28;20460;-68
2022/06/13 02:50:05;;;;;;;36.38;33.88;;;;;;;21.41;41.84;101895.09;5072184;28;20055;-68
2022/06/13 02:52:52;;;;;;;35.60;33.50;;;;;;;21.40;42.01;101896.22;5055910;28;20112;-68
2022/06/13 02:55:18;;;;;;;35.00;32.45;;;;;;;21.37;42.09;101897.59;5074121;28;20111;-69
2022/06/13 02:57:59;;;;;;;35.25;33.13;;;;;;;21.37;42.21;101913.25;5073168;28;20380;-68
2022/06/13 03:00:42;;;;;;;35.65;33.35;;;;;;;21.34;41.96;101905.56;5062304;28;20120;-68
2022/06/13 03:03:16;;;;;;;34.40;32.08;;;;;;;21.33;41.85;101904.75;5073970;28;20036;-68
2022/06/13 03:05:59;;;;;;;33.05;30.92;;;;;;;21.31;42.17;101909.72;5073504;28;20032;-68
2022/06/13 03:08:56;;;;;;;36.72;34.28;;;;;;;21.29;42.21;101902.84;5073699;28;20029;-68
2022/06/13 03:11:21;;;;;;;34.47;32.38;;;;;;;21.27;42.09;101907.81;5073320;28;20028;-68
2022/06/13 03:14:14;;;;;;;35.75;33.67;;;;;;;21.26;42.36;101904.25;5070792;28;20036;-68
2022/06/13 03:17:05;;;;;;;35.03;33.05;;;;;;;21.23;42.04;101907.59;5073451;28;20040;-68
2022/06/13 03:19:41;;;;;;;35.55;33.45;;;;;;;21.22;42.24;101910.59;5070758;28;20032;-68
2022/06/13 03:22:24;;;;;;;34.22;32.08;;;;;;;21.21;42.18;101914.47;5069930;28;20037;-68
2022/06/13 03:24:49;;;;;;;34.47;32.47;;;;;;;21.19;42.46;101917.50;5073107;28;20147;-68
2022/06/13 03:27:20;;;;;;;35.97;33.60;;;;;;;21.18;42.35;101913.13;5073910;28;20103;-69
2022/06/13 03:29:51;;;;;;;34.10;32.00;;;;;;;21.16;42.31;101915.31;5057963;28;20461;-68
2022/06/13 03:32:24;;;;;;;34.38;32.17;;;;;;;21.15;42.88;101916.44;5060217;28;20547;-68
2022/06/13 03:34:55;;;;;;;35.15;32.45;;;;;;;21.13;42.34;101916.72;5073467;28;20111;-68
2022/06/13 03:37:26;;;;;;;35.53;33.03;;;;;;;21.11;42.61;101913.44;5073486;28;20029;-68
2022/06/13 03:39:58;;;;;;;34.35;32.35;;;;;;;21.10;42.74;101919.22;5071734;28;20040;-68
2022/06/13 03:42:38;;;;;;;33.83;31.50;;;;;;;21.08;42.76;101914.00;5058236;28;20058;-68
2022/06/13 03:45:22;;;;;;;34.78;31.95;;;;;;;21.06;42.82;101918.97;5072456;28;20032;-68
2022/06/13 03:47:51;;;;;;;33.50;31.50;;;;;;;21.04;42.65;101929.44;5073140;28;20472;-68
2022/06/13 03:50:20;;;;;;;34.85;32.25;;;;;;;21.03;43.05;101925.03;5071522;28;20044;-69
2022/06/13 03:52:51;;;;;;;34.40;32.35;;;;;;;21.02;42.90;101928.06;5070654;28;20822;-68
2022/06/13 03:55:23;;;;;;;33.60;31.77;;;;;;;21.00;43.05;101922.84;5073035;28;20033;-68
2022/06/13 03:57:55;;;;;;;34.53;32.17;;;;;;;20.99;43.05;101923.97;5069051;28;20025;-68
2022/06/13 04:00:26;;;;;;;34.53;32.13;;;;;;;20.98;43.03;101935.22;5062391;28;20103;-68
2022/06/13 04:02:54;;;;;;;33.80;31.80;;;;;;;20.96;42.95;101932.75;5071280;28;20450;-68
2022/06/13 04:05:25;;;;;;;34.55;32.40;;;;;;;20.95;43.25;101939.38;5073144;28;20473;-68
2022/06/13 04:07:51;;;;;;;35.00;32.63;;;;;;;20.93;42.95;101938.81;5071306;28;20040;-68
2022/06/13 04:10:18;;;;;;;34.38;32.08;;;;;;;20.92;42.97;101940.75;5072694;28;20039;-68
2022/06/13 04:12:43;;;;;;;35.75;33.65;;;;;;;20.90;42.91;101942.16;5070028;28;20105;-69
2022/06/13 04:15:08;;;;;;;32.63;30.58;;;;;;;20.89;43.23;101945.97;5072729;28;20461;-68
2022/06/13 04:17:47;;;;;;;34.15;31.98;;;;;;;20.87;43.34;101956.44;5071772;28;20032;-68
2022/06/13 04:20:24;;;;;;;34.33;31.75;;;;;;;20.85;42.90;101953.16;5060649;28;20238;-69
2022/06/13 04:23:35;;;;;;;34.22;32.10;;;;;;;20.83;43.16;101952.59;5070594;28;20032;-68
2022/06/13 04:26:11;;;;;;;36.45;33.92;;;;;;;20.80;43.18;101950.44;5010593;28;20062;-68
2022/06/13 04:28:45;;;;;;;34.25;32.10;;;;;;;20.79;43.16;101962.50;4995576;28;20120;-68
2022/06/13 04:31:12;;;;;;;33.13;31.05;;;;;;;20.77;43.46;101951.00;5044629;28;20083;-68
2022/06/13 04:33:45;;;;;;;34.42;32.22;;;;;;;20.77;43.12;101953.75;5070288;28;20086;-68
2022/06/13 04:36:14;;;;;;;34.85;32.78;;;;;;;20.74;43.34;101955.13;5071778;28;20032;-69
2022/06/13 04:38:44;;;;;;;33.95;31.90;;;;;;;20.72;43.49;101960.09;5070318;28;20036;-67
2022/06/13 04:41:11;;;;;;;34.83;32.53;;;;;;;20.70;43.43;101954.06;5072422;28;20029;-68
2022/06/13 04:43:41;;;;;;;34.50;32.45;;;;;;;20.69;43.54;101964.22;5071106;28;20123;-68
2022/06/13 04:46:13;;;;;;;32.30;30.48;;;;;;;20.67;43.59;101962.84;5071323;28;20032;-68
2022/06/13 04:48:41;;;;;;;34.35;31.77;;;;;;;20.66;43.51;101963.94;5067579;28;20385;-68
2022/06/13 04:51:10;;;;;;;33.30;30.80;;;;;;;20.64;43.63;101966.16;5071929;28;20387;-68
2022/06/13 04:53:52;;;;;;;34.88;32.10;;;;;;;20.63;43.66;101975.50;5087337;28;20020;-69
2022/06/13 04:56:20;;;;;;;32.63;30.42;;;;;;;20.61;43.52;101963.97;5070413;28;20082;-68
2022/06/13 04:58:46;;;;;;;33.43;31.10;;;;;;;20.59;43.52;101975.25;5052007;28;20105;-68
2022/06/13 05:01:17;;;;;;;33.10;30.90;;;;;;;20.59;43.79;101977.97;5064828;28;20025;-68
2022/06/13 05:03:46;;;;;;;35.28;32.70;;;;;;;20.57;43.82;101973.88;5060668;28;20017;-68
2022/06/13 05:06:25;;;;;;;32.55;30.73;;;;;;;20.57;44.28;101984.84;5060932;28;20116;-68
2022/06/13 05:08:55;;;;;;;;;;;;;;;20.53;44.09;101979.88;5068246;28;20024;-68
2022/06/13 05:11:31;;;;;;;32.35;30.38;;;;;;;20.52;43.71;101977.44;5069444;28;19916;-68
2022/06/13 05:14:11;;;;;;;33.53;31.25;;;;;;;20.50;44.26;101982.38;5060161;28;20064;-68
2022/06/13 05:16:59;;;;;;;35.05;32.50;;;;;;;20.48;43.95;101990.06;5066216;28;20020;-68
2022/06/13 05:19:46;;;;;;;33.20;30.80;;;;;;;20.46;43.96;101993.09;5059751;28;20108;-68
2022/06/13 05:22:56;;;;;;;31.30;29.25;;;;;;;20.45;44.09;101991.44;5071417;28;20357;-69
2022/06/13 05:25:40;;;;;;;31.75;29.67;;;;;;;20.44;44.02;101994.47;5067736;28;20063;-68
2022/06/13 05:28:06;;;;;;;32.40;29.95;;;;;;;20.42;44.31;102002.97;5068927;28;20093;-69
2022/06/13 05:30:32;;;;;;;32.58;30.60;;;;;;;20.42;44.38;101999.41;5071412;28;20036;-70
2022/06/13 05:32:57;;;;;;;32.78;30.58;;;;;;;20.40;44.41;101999.69;5069347;28;20082;-68
2022/06/13 05:35:28;;;;;;;33.97;31.52;;;;;;;20.41;44.41;102008.72;5071667;28;20457;-68
2022/06/13 05:37:55;;;;;;;33.70;31.52;;;;;;;20.40;44.43;102018.06;5069284;28;20063;-68
2022/06/13 05:40:22;;;;;;;32.90;30.48;;;;;;;20.39;44.12;102011.78;5067184;28;20037;-68
2022/06/13 05:42:48;;;;;;;32.83;30.80;;;;;;;20.38;44.58;102018.34;5066965;28;20452;-68
2022/06/13 05:45:16;;;;;;;32.25;29.77;;;;;;;20.37;44.31;102015.91;5071426;28;20040;-68
2022/06/13 05:47:44;;;;;;;31.75;29.73;;;;;;;20.37;44.47;102011.22;5069466;28;20107;-69
2022/06/13 05:50:22;;;;;;;31.42;29.23;;;;;;;20.37;44.20;102018.63;5070909;28;20170;-68
2022/06/13 05:52:48;;;;;;;32.47;30.38;;;;;;;20.36;44.22;102027.94;5058511;28;20028;-68
2022/06/13 05:55:13;;;;;;;32.58;30.30;;;;;;;20.36;44.44;102019.72;5070641;28;20464;-68
2022/06/13 05:57:40;;;;;;;31.15;29.25;;;;;;;20.36;44.60;102022.47;5073443;28;20028;-68
2022/06/13 06:00:14;;;;;;;32.55;30.33;;;;;;;20.36;44.72;102041.69;5074164;28;20059;-69
2022/06/13 06:02:40;;;;;;;32.33;30.42;;;;;;;20.34;44.59;102039.22;5073387;28;20033;-69
2022/06/13 06:05:06;;;;;;;30.35;28.20;;;;;;;20.34;44.46;102038.41;5070281;28;20036;-68
2022/06/13 06:07:32;;;;;;;31.08;29.00;;;;;;;20.33;44.41;102045.78;5072469;28;20499;-68
2022/06/13 06:09:58;;;;;;;31.92;29.70;;;;;;;20.32;44.71;102044.97;5072916;28;20094;-68
2022/06/13 06:12:24;;;;;;;33.28;31.08;;;;;;;20.32;44.55;102047.72;5074033;28;20032;-68
2022/06/13 06:14:49;;;;;;;33.95;31.75;;;;;;;20.32;44.35;102053.22;5074615;28;20033;-69
2022/06/13 06:17:15;;;;;;;32.33;30.20;;;;;;;20.32;44.63;102049.66;5074663;28;20460;-68
2022/06/13 06:19:40;;;;;;;33.95;31.35;;;;;;;20.32;44.78;102052.41;5072854;28;20200;-69
2022/06/13 06:22:06;;;;;;;31.30;29.40;;;;;;;20.31;44.62;102059.81;5066204;28;21011;-68
2022/06/13 06:24:31;;;;;;;31.67;29.75;;;;;;;20.31;44.61;102065.28;5075202;28;20403;-69
2022/06/13 06:26:57;;;;;;;33.15;30.70;;;;;;;20.32;44.92;102066.13;5074361;28;20044;-69
2022/06/13 06:29:24;;;;;;;31.63;29.77;;;;;;;20.31;44.90;102062.56;5074496;28;20035;-69
2022/06/13 06:31:50;;;;;;;32.60;30.70;;;;;;;20.31;44.99;102067.22;5063870;28;20037;-68
2022/06/13 06:34:16;;;;;;;31.52;29.52;;;;;;;20.32;44.80;102068.84;5065907;28;20541;-68
2022/06/13 06:36:41;;;;;;;32.15;30.00;;;;;;;20.31;44.48;102067.22;5074497;28;20120;-68
2022/06/13 06:39:06;;;;;;;30.60;28.92;;;;;;;20.32;44.55;102072.41;5074306;28;20550;-68
2022/06/13 06:41:33;;;;;;;31.35;29.10;;;;;;;20.34;44.70;102076.81;5057433;28;20039;-69
2022/06/13 06:43:58;;;;;;;32.10;30.15;;;;;;;20.33;44.68;102078.72;5072775;28;20028;-68
2022/06/13 06:46:24;;;;;;;31.63;29.35;;;;;;;20.35;44.61;102083.94;5074711;28;20043;-68
2022/06/13 06:48:51;;;;;;;31.88;29.42;;;;;;;20.36;44.79;102078.19;5074020;28;20024;-68
2022/06/13 06:51:18;;;;;;;30.23;28.63;;;;;;;20.38;44.82;102083.38;5066560;28;20484;-68
2022/06/13 07:01:56;;;;;;;32.25;30.08;;;;;;;20.41;44.52;102082.81;5058452;28;20055;-68
2022/06/13 07:04:22;;;;;;;31.63;29.83;;;;;;;20.42;45.00;102084.50;5062268;28;20040;-68
2022/06/13 07:06:47;;;;;;;31.52;29.80;;;;;;;20.43;44.79;102084.19;5071145;28;20036;-68
2022/06/13 07:09:12;;;;;;;30.88;28.98;;;;;;;20.44;44.68;102087.78;5068971;28;20044;-68
2022/06/13 07:11:54;;;;;;;30.77;29.13;;;;;;;20.45;44.84;102092.16;5071824;28;20499;-68
2022/06/13 07:14:31;;;;;;;30.13;28.50;;;;;;;20.48;44.64;102083.38;5069642;28;20731;-68
2022/06/13 07:16:58;;;;;;;30.80;29.17;;;;;;;20.49;44.69;102085.84;5065002;28;20035;-68
2022/06/13 07:19:24;;;;;;;33.13;29.83;;;;;;;20.51;44.56;102080.91;5070780;28;20521;-68
2022/06/13 07:21:50;;;;;;;33.13;31.17;;;;;;;20.55;44.44;102086.69;5063383;28;20029;-69
2022/06/13 07:24:16;;;;;;;30.88;29.27;;;;;;;20.56;44.66;102091.06;5067145;28;20068;-68
2022/06/13 07:26:42;;;;;;;30.20;28.70;;;;;;;20.59;44.66;102095.19;5067505;28;20033;-68
2022/06/13 07:29:08;;;;;;;31.92;29.50;;;;;;;20.60;44.35;102088.59;5071003;28;20028;-69
2022/06/13 07:31:41;;;;;;;33.15;31.45;;;;;;;20.62;44.39;102095.47;5061948;28;20029;-69
2022/06/13 07:34:12;;;;;;;32.67;30.30;;;;;;;20.66;44.27;102090.22;5059771;28;20242;-69
2022/06/13 07:36:37;;;;;;;33.30;31.15;;;;;;;20.70;44.15;102094.06;5069119;28;20103;-69
2022/06/13 07:39:03;;;;;;;32.28;30.48;;;;;;;20.72;44.30;102095.44;5067160;28;20488;-69
2022/06/13 07:41:29;;;;;;;31.75;30.15;;;;;;;20.76;44.25;102098.44;5056780;28;20093;-68
2022/06/13 07:43:56;;;;;;;32.30;30.02;;;;;;;20.80;44.63;102104.22;5070218;28;20028;-68
2022/06/13 07:46:25;;;;;;;30.70;29.10;;;;;;;20.82;44.83;102104.75;5055534;28;20033;-68
2022/06/13 07:48:50;;;;;;;31.02;29.40;;;;;;;20.85;44.64;102112.44;5071902;28;20045;-68
2022/06/13 07:51:16;;;;;;;32.08;30.35;;;;;;;20.88;44.66;102107.19;5071797;28;20497;-68
2022/06/13 07:53:41;;;;;;;32.53;30.83;;;;;;;20.90;44.40;102116.00;5067360;28;20040;-68
2022/06/13 07:56:09;;;;;;;32.45;30.55;;;;;;;20.92;44.33;102122.03;5064676;28;20166;-69
2022/06/13 07:58:36;;;;;;;32.70;30.80;;;;;;;20.97;44.69;102121.19;5067618;28;20496;-68
2022/06/13 08:01:02;;;;;;;32.95;31.30;;;;;;;21.00;44.36;102131.63;5069478;28;20460;-70
2022/06/13 08:03:30;;;;;;;32.05;30.30;;;;;;;21.03;44.09;102127.50;5071263;28;20116;-68
2022/06/13 08:05:57;;;;;;;32.10;30.30;;;;;;;21.06;44.04;102127.75;5070408;28;20361;-69
2022/06/13 08:08:23;;;;;;;32.65;30.50;;;;;;;21.10;44.50;102139.00;5071940;28;20024;-68
2022/06/13 08:10:51;;;;;;;33.03;30.98;;;;;;;21.13;44.04;102131.03;5070919;28;20127;-68
2022/06/13 08:13:19;;;;;;;33.28;31.48;;;;;;;21.19;44.06;102140.06;5067847;28;20113;-68
2022/06/13 08:15:45;;;;;;;32.47;30.88;;;;;;;21.24;44.87;102144.72;5069491;28;20032;-68
2022/06/13 08:18:11;;;;;;;34.97;32.28;;;;;;;21.29;44.40;102147.44;5068263;28;20188;-68
2022/06/13 08:20:38;;;;;;;32.55;30.90;;;;;;;21.34;44.26;102155.66;5071065;28;20111;-68
2022/06/13 08:23:03;;;;;;;33.45;31.70;;;;;;;21.39;44.72;102155.69;5068271;28;20052;-70
2022/06/13 08:25:32;;;;;;;34.00;32.22;;;;;;;21.43;44.71;102156.78;5071324;28;20028;-68
2022/06/13 08:27:59;;;;;;;33.78;31.95;;;;;;;21.49;44.49;102155.63;5071351;28;20039;-69
2022/06/13 08:30:30;;;;;;;33.65;31.85;;;;;;;21.56;44.49;102152.59;5071072;28;20040;-69
2022/06/13 08:32:55;;;;;;;36.65;34.25;;;;;;;21.61;44.11;102160.81;5070797;28;20055;-69
2022/06/13 08:35:21;;;;;;;33.70;31.70;;;;;;;21.66;44.60;102154.47;5063095;28;20651;-69
2022/06/13 08:37:46;;;;;;;33.42;31.73;;;;;;;21.72;44.12;102161.56;5070607;28;20495;-69
2022/06/13 08:40:12;;;;;;;33.80;31.98;;;;;;;21.77;44.19;102173.38;5070556;28;20101;-69
2022/06/13 08:42:57;;;;;;;35.83;34.03;;;;;;;21.85;44.40;102169.22;5070930;28;20036;-69
2022/06/13 08:45:37;;;;;;;35.10;33.10;;;;;;;21.90;44.28;102171.09;5062582;28;20036;-69
2022/06/13 08:48:12;;;;;;;34.58;32.88;;;;;;;21.96;44.58;102169.97;5070843;28;20032;-69
2022/06/13 08:51:03;;;;;;;35.65;33.85;;;;;;;22.03;44.23;102171.28;5070378;28;20473;-69
2022/06/13 08:53:36;;;;;;;34.42;32.75;;;;;;;22.09;44.48;102172.06;5068874;28;20037;-69
2022/06/13 08:56:14;;;;;;;36.42;34.53;;;;;;;22.17;43.80;102179.72;5056551;28;20028;-68
2022/06/13 08:58:45;;;;;;;35.80;33.83;;;;;;;22.23;43.93;102173.09;5067117;28;20060;-69
2022/06/13 09:01:27;;;;;;;37.17;35.28;;;;;;;22.30;44.43;102178.31;5070300;28;20032;-70
2022/06/13 09:04:03;;;;;;;36.00;34.10;;;;;;;22.37;44.16;102176.00;5058853;28;20085;-69
2022/06/13 09:06:37;;;;;;;36.33;34.50;;;;;;;22.43;44.31;102185.91;5061668;28;20047;-70
2022/06/13 09:09:19;;;;;;;36.30;34.55;;;;;;;22.50;44.47;102182.78;5070747;28;20031;-69
2022/06/13 09:12:00;;;;;;;35.35;33.67;;;;;;;22.55;44.04;102184.69;5060911;28;20039;-69
2022/06/13 09:14:34;;;;;;;36.22;34.42;;;;;;;22.62;43.75;102179.66;5068889;28;20032;-69
2022/06/13 09:17:03;;;;;;;35.72;33.85;;;;;;;22.69;43.97;102186.47;5068478;28;20457;-69
2022/06/13 09:19:43;;;;;;;36.67;34.90;;;;;;;22.75;43.50;102187.25;5070370;28;20078;-69
2022/06/13 09:22:27;;;;;;;37.17;35.13;;;;;;;22.81;43.38;102191.63;5055609;28;20174;-70
2022/06/13 09:25:06;;;;;;;38.03;36.13;;;;;;;22.88;43.26;102194.00;5060440;28;20479;-69
2022/06/13 09:27:48;;;;;;;;;;;;;;;22.92;43.72;102197.03;5058612;28;20051;-69
2022/06/13 09:30:19;;;;;;;36.85;35.05;;;;;;;22.97;43.46;102199.72;5050821;28;20280;-69
2022/06/13 09:32:53;;;;;;;36.47;34.53;;;;;;;23.02;43.27;102194.19;5068938;28;20480;-70
2022/06/13 09:35:20;;;;;;;35.65;33.85;;;;;;;23.07;42.92;102196.91;5069767;28;20047;-69
2022/06/13 09:37:52;;;;;;;36.42;34.63;;;;;;;23.12;43.36;102205.09;5061559;28;20110;-69
2022/06/13 09:40:24;;;;;;;38.53;36.63;;;;;;;23.17;42.92;102207.00;5069357;28;20455;-69
2022/06/13 09:43:22;;;;;;;38.45;36.55;;;;;;;23.23;43.12;102211.31;5068543;28;20032;-70
2022/06/13 09:46:09;;;;;;;38.53;36.43;;;;;;;23.30;42.19;102218.13;5065791;28;20511;-70
2022/06/13 09:48:43;;;;;;;39.72;37.72;;;;;;;23.35;42.06;102213.69;5065882;28;20089;-72
2022/06/13 09:51:37;;;;;;;39.90;37.80;;;;;;;23.39;41.63;102210.03;5069772;28;20025;-72
2022/06/13 09:54:15;;;;;;;38.10;36.25;;;;;;;23.40;42.16;102228.22;5053965;28;20020;-70
2022/06/13 09:56:49;;;;;;;38.80;36.90;;;;;;;23.45;42.23;102219.88;5071556;28;20025;-70
2022/06/13 09:59:35;;;;;;;40.03;38.03;;;;;;;23.50;41.54;102222.56;5066819;28;20036;-70
2022/06/13 10:02:20;;;;;;;39.20;36.88;;;;;;;23.57;41.73;102216.72;5068737;28;20082;-68
2022/06/13 10:04:48;;;;;;;38.78;36.78;;;;;;;23.61;41.51;102233.47;5070837;28;20025;-69
2022/06/13 10:07:20;;;;;;;38.25;36.45;;;;;;;23.66;41.37;102223.22;5070888;28;20154;-70
2022/06/13 10:10:07;;;;;;;40.58;38.47;;;;;;;23.72;40.82;102229.50;5069686;28;20391;-70
2022/06/13 10:12:56;;;;;;;38.17;36.15;;;;;;;23.77;41.24;102231.41;5069254;28;20036;-70
2022/06/13 10:15:31;;;;;;;39.60;37.70;;;;;;;23.83;41.82;102224.69;5071166;28;20080;-70
2022/06/13 10:18:10;;;;;;;39.55;37.65;;;;;;;23.87;41.23;102223.00;5071454;28;20541;-70
2022/06/13 10:20:46;;;;;;;39.75;37.75;;;;;;;23.92;41.29;102228.44;5065441;28;20086;-70
2022/06/13 10:23:27;;;;;;;41.10;39.10;;;;;;;23.98;41.24;102221.72;5070282;28;20056;-71
2022/06/13 10:26:03;;;;;;;40.25;38.25;;;;;;;24.03;40.95;102218.88;5070978;28;20106;-69
2022/06/13 10:28:31;;;;;;;41.00;38.90;;;;;;;24.08;40.77;102224.31;5071343;28;20029;-70
2022/06/13 10:31:03;;;;;;;41.10;39.00;;;;;;;24.13;41.05;102221.50;5060217;28;20475;-70
2022/06/13 10:33:40;;;;;;;41.17;39.08;;;;;;;24.19;40.59;102209.25;5063461;28;20039;-70
2022/06/13 10:36:16;;;;;;;42.17;40.00;;;;;;;24.26;40.65;102219.09;5070823;28;20376;-70
2022/06/13 10:38:56;;;;;;;41.53;39.53;;;;;;;24.31;40.13;102221.78;5071389;28;20097;-70
2022/06/13 10:41:24;;;;;;;41.88;39.78;;;;;;;24.36;40.45;102227.22;5059527;28;20036;-70
2022/06/13 10:43:51;;;;;;;42.47;40.47;;;;;;;24.39;40.46;102219.19;5073560;28;20029;-71
2022/06/13 10:46:17;;;;;;;42.97;40.45;;;;;;;24.45;40.70;102219.94;5074590;28;20029;-70
2022/06/13 10:49:04;;;;;;;43.33;41.22;;;;;;;24.50;40.11;102222.63;5074909;28;20388;-76
2022/06/13 10:51:30;;;;;;;42.80;40.80;;;;;;;24.53;39.89;102222.00;5065762;28;20028;-76
2022/06/13 10:54:09;;;;;;;41.33;39.28;;;;;;;24.58;39.67;102213.63;5074643;28;20036;-72
2022/06/13 10:56:50;;;;;;;41.30;39.30;;;;;;;24.64;39.68;102232.88;5074549;28;20107;-71
2022/06/13 10:59:24;;;;;;;43.15;40.95;;;;;;;24.69;38.34;102225.31;5074035;28;20086;-71
2022/06/13 11:02:05;;;;;;;41.47;39.53;;;;;;;24.74;39.50;102235.47;5071942;28;20029;-72
2022/06/13 11:04:36;;;;;;;44.28;42.08;;;;;;;24.79;39.42;102235.38;5073452;28;20103;-72
2022/06/13 11:07:19;;;;;;;42.03;40.03;;;;;;;24.84;39.44;102243.59;5074336;28;20055;-71
2022/06/13 11:09:49;;;;;;;44.10;41.80;;;;;;;24.90;38.39;102234.09;5074139;28;20036;-71
2022/06/13 11:12:38;;;;;;;43.65;41.45;;;;;;;24.95;39.44;102239.53;5061676;28;20021;-72
2022/06/13 11:24:51;;;;;;;44.45;42.25;;;;;;;25.17;39.03;102252.69;5063103;28;20998;-73
2022/06/13 11:27:42;;;;;;;45.60;43.08;;;;;;;25.20;39.33;102254.00;5069415;28;20485;-73
2022/06/13 11:30:33;;;;;;;44.78;42.70;;;;;;;25.25;38.44;102256.72;5073922;28;20064;-71
2022/06/13 11:33:04;;;;;;;44.90;42.60;;;;;;;25.29;38.67;102254.13;5074235;28;20056;-71
2022/06/13 11:35:56;;;;;;;46.28;43.75;;;;;;;25.34;38.52;102251.28;5071238;28;20032;-70
2022/06/13 11:38:34;;;;;;;44.92;42.58;;;;;;;25.39;38.42;102259.47;5067447;28;20039;-70
2022/06/13 11:41:11;;;;;;;41.67;39.75;;;;;;;25.43;37.62;102254.97;5063781;28;20384;-71
2022/06/13 11:43:41;;;;;;;42.40;40.40;;;;;;;25.44;37.92;102257.41;5055573;28;20044;-72
2022/06/13 11:46:15;;;;;;;42.63;40.60;;;;;;;25.49;37.92;102248.19;5073741;28;20032;-71
2022/06/13 11:48:50;;;;;;;42.72;40.72;;;;;;;25.55;37.45;102254.44;5071393;28;20020;-70
2022/06/13 11:51:21;;;;;;;43.22;41.20;;;;;;;25.58;37.89;102259.38;5053517;28;20124;-72
2022/06/13 11:53:49;;;;;;;44.63;42.13;;;;;;;25.62;37.23;102265.94;5071489;28;20090;-72
2022/06/13 11:56:27;;;;;;;43.63;41.30;;;;;;;25.64;37.60;102270.03;5072539;28;20380;-71
2022/06/13 11:58:54;;;;;;;42.70;40.70;;;;;;;25.69;37.84;102260.81;5069927;28;20642;-72